createdAt,value
2023-02-02T00:02:47.686Z,22.57
2023-02-02T00:05:51.084Z,30.67
2023-02-02T00:08:53.009Z,39.77
2023-02-02T00:11:55.077Z,42.83
2023-02-02T00:14:56.771Z,33.90
2023-02-02T00:17:58.335Z,28.43
2023-02-02T00:20:59.980Z,18.37
2023-02-02T00:24:01.781Z,19.80
2023-02-02T00:27:03.469Z,16.30
2023-02-02T00:30:06.021Z,16.03
2023-02-02T00:33:07.620Z,11.90
2023-02-02T00:36:09.488Z,6.93
2023-02-02T00:39:13.165Z,9.27
2023-02-02T00:42:14.871Z,5.90
2023-02-02T00:45:16.894Z,8.87
2023-02-02T00:48:20.131Z,9.23
2023-02-02T00:51:22.176Z,6.70
2023-02-02T00:54:23.837Z,6.43
2023-02-02T00:57:25.415Z,6.70
2023-02-02T01:00:28.106Z,10.60
2023-02-02T01:03:29.801Z,9.93
2023-02-02T01:06:31.583Z,6.67
2023-02-02T01:09:33.165Z,9.93
2023-02-02T01:12:34.898Z,8.77
2023-02-02T01:15:37.031Z,13.87
2023-02-02T01:18:39.098Z,12.70
2023-02-02T01:21:41.757Z,14.23
2023-02-02T01:24:43.312Z,14.20
2023-02-02T01:27:44.884Z,14.40
2023-02-02T01:30:46.558Z,14.90
2023-02-02T01:33:49.070Z,16.80
2023-02-02T01:36:50.734Z,13.73
2023-02-02T01:39:52.344Z,15.53
2023-02-02T01:42:54.026Z,15.83
2023-02-02T01:45:56.731Z,10.57
2023-02-02T01:49:03.979Z,14.17
2023-02-02T01:52:06.006Z,21.17
2023-02-02T01:55:09.586Z,12.70
2023-02-02T01:58:14.125Z,17.10
2023-02-02T02:01:17.139Z,14.47
2023-02-02T02:04:18.942Z,19.10
2023-02-02T02:07:20.774Z,18.43
2023-02-02T02:10:22.620Z,18.23
2023-02-02T02:13:45.720Z,18.83
2023-02-02T02:17:08.765Z,13.57
2023-02-02T02:20:35.327Z,18.13
2023-02-02T02:24:14.148Z,13.77
2023-02-02T02:27:15.740Z,11.93
2023-02-02T02:30:17.434Z,12.57
2023-02-02T02:33:22.612Z,13.03
2023-02-02T02:36:30.706Z,12.67
2023-02-02T02:39:40.058Z,13.30
2023-02-02T02:42:44.525Z,13.23
2023-02-02T02:45:46.480Z,15.73
2023-02-02T02:48:50.472Z,20.47
2023-02-02T02:51:53.963Z,26.37
2023-02-02T02:55:10.309Z,18.43
2023-02-02T02:58:18.699Z,19.57
2023-02-02T03:01:34.793Z,17.93
2023-02-02T03:04:44.180Z,18.20
2023-02-02T03:07:48.943Z,18.87
2023-02-02T03:10:51.592Z,25.33
2023-02-02T03:13:53.308Z,20.70
2023-02-02T03:16:54.958Z,14.27
2023-02-02T03:19:56.723Z,20.57
2023-02-02T03:22:58.311Z,22.67
2023-02-02T03:25:59.933Z,24.07
2023-02-02T03:29:02.079Z,24.47
2023-02-02T03:32:03.944Z,28.10
2023-02-02T03:35:05.708Z,29.43
2023-02-02T03:38:07.357Z,30.00
2023-02-02T03:41:09.049Z,24.33
2023-02-02T03:44:10.754Z,32.00
2023-02-02T03:47:12.420Z,36.27
2023-02-02T03:50:14.196Z,33.00
2023-02-02T03:53:15.813Z,35.60
2023-02-02T03:56:19.276Z,33.23
2023-02-02T03:59:20.868Z,38.93
2023-02-02T04:02:22.817Z,37.10
2023-02-02T04:05:24.853Z,33.40
2023-02-02T04:08:26.785Z,31.00
2023-02-02T04:11:28.422Z,27.33
2023-02-02T04:14:30.066Z,36.27
2023-02-02T04:17:31.685Z,30.63
2023-02-02T04:20:33.297Z,35.13
2023-02-02T04:23:35.329Z,30.67
2023-02-02T04:26:37.010Z,30.47
2023-02-02T04:29:38.638Z,28.93
2023-02-02T04:32:40.328Z,31.97
2023-02-02T04:35:45.049Z,31.33
2023-02-02T04:38:48.971Z,37.10
2023-02-02T04:41:50.583Z,36.23
2023-02-02T04:44:52.137Z,38.43
2023-02-02T04:47:53.712Z,40.73
2023-02-02T04:50:59.490Z,45.37
2023-02-02T04:54:01.027Z,47.10
2023-02-02T04:57:02.716Z,42.77
2023-02-02T05:00:04.607Z,45.87
2023-02-02T05:03:06.209Z,43.53
2023-02-02T05:06:07.972Z,45.83
2023-02-02T05:09:10.592Z,44.60
2023-02-02T05:12:12.219Z,51.07
2023-02-02T05:15:13.928Z,56.73
2023-02-02T05:18:15.571Z,49.20
2023-02-02T05:21:17.323Z,51.47
2023-02-02T05:24:18.895Z,36.30
2023-02-02T05:27:20.598Z,36.83
2023-02-02T05:30:22.233Z,34.87
2023-02-02T05:33:23.817Z,11.27
2023-02-02T05:36:26.811Z,9.43
2023-02-02T05:39:28.415Z,5.80
2023-02-02T05:42:30.052Z,6.37
2023-02-02T05:45:33.010Z,6.23
2023-02-02T05:48:34.667Z,9.17
2023-02-02T05:51:39.422Z,12.97
2023-02-02T05:54:41.003Z,11.27
2023-02-02T05:57:42.588Z,9.73
2023-02-02T06:00:44.252Z,8.93
2023-02-02T06:03:45.938Z,11.43
2023-02-02T06:06:48.122Z,13.97
2023-02-02T06:09:49.862Z,14.23
2023-02-02T06:12:51.531Z,14.87
2023-02-02T06:15:53.261Z,9.23
2023-02-02T06:18:54.921Z,15.80
2023-02-02T06:21:56.514Z,14.50
2023-02-02T06:24:58.856Z,9.77
2023-02-02T06:28:01.052Z,14.13
2023-02-02T06:31:06.773Z,8.97
2023-02-02T06:34:10.530Z,9.50
2023-02-02T06:37:12.152Z,13.00
2023-02-02T06:40:13.876Z,10.53
2023-02-02T06:43:16.592Z,9.30
2023-02-02T06:46:18.355Z,8.97
2023-02-02T06:49:20.032Z,14.57
2023-02-02T06:52:21.700Z,8.93
2023-02-02T06:55:23.591Z,9.63
2023-02-02T06:58:25.448Z,13.97
2023-02-02T07:01:27.128Z,23.23
2023-02-02T07:04:28.739Z,8.93
2023-02-02T07:07:34.351Z,6.87
2023-02-02T07:11:13.447Z,14.87
2023-02-02T07:14:00.679Z,7.50
2023-02-02T07:17:02.302Z,12.77
2023-02-02T07:20:04.203Z,11.97
2023-02-02T07:23:05.845Z,34.73
2023-02-02T07:26:08.902Z,31.07
2023-02-02T07:29:13.045Z,10.73
2023-02-02T07:32:14.669Z,15.93
2023-02-02T07:35:16.977Z,26.87
2023-02-02T07:38:18.987Z,8.90
2023-02-02T07:41:20.726Z,15.90
2023-02-02T07:44:22.344Z,15.53
2023-02-02T07:47:25.356Z,18.53
2023-02-02T07:50:27.756Z,20.23
2023-02-02T07:53:29.806Z,15.43
2023-02-02T07:56:31.432Z,14.87
2023-02-02T07:59:33.031Z,28.60
2023-02-02T08:02:34.717Z,32.07
2023-02-02T08:05:36.371Z,28.93
2023-02-02T08:08:38.016Z,21.13
2023-02-02T08:11:39.784Z,12.77
2023-02-02T08:14:41.476Z,11.47
2023-02-02T08:17:46.675Z,21.50
2023-02-02T08:20:49.395Z,15.07
2023-02-02T08:23:52.402Z,34.67
2023-02-02T08:26:54.164Z,15.87
2023-02-02T08:29:55.787Z,49.97
2023-02-02T08:32:57.353Z,3.83
2023-02-02T08:35:59.002Z,14.03
2023-02-02T08:39:03.073Z,8.43
2023-02-02T08:42:04.989Z,5.43
2023-02-02T08:46:02.281Z,9.50
2023-02-02T08:48:28.554Z,11.10
2023-02-02T08:51:30.415Z,7.17
2023-02-02T08:54:32.031Z,9.53
2023-02-02T08:57:34.528Z,5.50
2023-02-02T09:00:36.275Z,5.97
2023-02-02T09:03:40.315Z,12.07
2023-02-02T09:06:42.598Z,4.83
2023-02-02T09:09:44.205Z,5.37
2023-02-02T09:12:46.055Z,21.20
2023-02-02T09:15:47.702Z,5.30
2023-02-02T09:18:49.442Z,9.37
2023-02-02T09:21:51.191Z,13.20
2023-02-02T09:24:52.830Z,10.53
2023-02-02T09:27:54.499Z,10.07
2023-02-02T09:30:56.273Z,10.37
2023-02-02T09:34:00.634Z,6.03
2023-02-02T09:37:02.334Z,4.67
2023-02-02T09:40:04.172Z,16.40
2023-02-02T09:43:11.910Z,9.20
2023-02-02T09:46:13.481Z,3.43
2023-02-02T09:49:23.255Z,5.73
2023-02-02T09:52:38.409Z,1.80
2023-02-02T09:55:41.192Z,4.90
2023-02-02T09:58:51.086Z,14.83
2023-02-02T10:01:56.233Z,11.43
2023-02-02T10:05:09.110Z,16.60
2023-02-02T10:08:11.608Z,12.33
2023-02-02T10:11:36.521Z,8.53
2023-02-02T10:15:06.519Z,6.83
2023-02-02T10:18:20.329Z,21.03
2023-02-02T10:21:42.182Z,15.83
2023-02-02T10:24:44.364Z,5.50
2023-02-02T10:27:50.613Z,4.80
2023-02-02T10:30:57.845Z,7.23
2023-02-02T10:34:14.780Z,5.60
2023-02-02T10:37:31.718Z,3.67
2023-02-02T10:40:42.497Z,4.87
2023-02-02T10:44:01.170Z,6.57
2023-02-02T10:47:04.995Z,4.87
2023-02-02T10:50:12.790Z,2.70
2023-02-02T10:53:15.581Z,7.47
2023-02-02T10:56:18.459Z,9.67
2023-02-02T10:59:23.060Z,8.33
2023-02-02T11:02:24.628Z,7.70
2023-02-02T11:05:47.112Z,15.23
2023-02-02T11:08:52.768Z,6.03
2023-02-02T11:12:00.326Z,11.43
2023-02-02T11:15:05.463Z,6.03
2023-02-02T11:18:33.423Z,3.10
2023-02-02T11:21:35.243Z,5.93
2023-02-02T11:24:45.346Z,5.87
2023-02-02T11:27:47.368Z,6.40
2023-02-02T11:30:52.469Z,4.07
2023-02-02T11:33:54.269Z,5.27
2023-02-02T11:37:01.830Z,3.13
2023-02-02T11:40:35.863Z,2.33
2023-02-02T11:43:42.176Z,7.10
2023-02-02T11:46:43.910Z,5.27
2023-02-02T11:49:45.629Z,7.67
2023-02-02T11:52:47.248Z,6.73
2023-02-02T11:55:50.901Z,5.80
2023-02-02T11:58:53.672Z,3.37
2023-02-02T12:02:10.705Z,8.07
2023-02-02T12:05:13.474Z,6.43
2023-02-02T12:08:15.122Z,3.80
2023-02-02T12:11:24.866Z,4.10
2023-02-02T12:14:34.526Z,3.30
2023-02-02T12:17:45.282Z,5.73
2023-02-02T12:21:07.205Z,2.57
2023-02-02T12:24:24.837Z,3.37
2023-02-02T12:27:45.229Z,5.30
2023-02-02T12:30:46.818Z,6.20
2023-02-02T12:33:54.966Z,5.83
2023-02-02T12:37:22.675Z,6.43
2023-02-02T12:40:30.434Z,4.03
2023-02-02T12:43:32.021Z,6.27
2023-02-02T12:46:52.475Z,5.60
2023-02-02T12:50:00.523Z,5.63
2023-02-02T12:53:24.898Z,8.53
2023-02-02T12:56:32.937Z,26.93
2023-02-02T13:00:04.291Z,15.50
2023-02-02T13:03:09.146Z,4.67
2023-02-02T13:06:13.812Z,17.67
2023-02-02T13:09:24.376Z,14.73
2023-02-02T13:12:26.564Z,8.13
2023-02-02T13:15:39.062Z,8.87
2023-02-02T13:18:46.148Z,9.37
2023-02-02T13:21:48.558Z,8.43
2023-02-02T13:24:52.659Z,8.20
2023-02-02T13:27:54.982Z,9.83
2023-02-02T13:30:58.297Z,9.23
2023-02-02T13:34:20.628Z,7.90
2023-02-02T13:37:23.741Z,5.07
2023-02-02T13:40:28.546Z,9.37
2023-02-02T13:43:33.222Z,7.17
2023-02-02T13:46:42.769Z,9.57
2023-02-02T13:49:47.277Z,8.07
2023-02-02T13:52:48.882Z,9.00
2023-02-02T13:56:19.742Z,6.23
2023-02-02T13:59:30.436Z,8.50
2023-02-02T14:02:53.814Z,9.60
2023-02-02T14:06:05.792Z,10.13
2023-02-02T14:09:16.711Z,17.73
2023-02-02T14:12:26.985Z,19.63
2023-02-02T14:15:39.194Z,14.20
2023-02-02T14:18:54.467Z,10.60
2023-02-02T14:22:05.369Z,7.27
2023-02-02T14:25:26.097Z,11.00
2023-02-02T14:28:47.893Z,9.97
2023-02-02T14:31:54.807Z,8.83
2023-02-02T14:35:20.361Z,10.20
2023-02-02T14:38:40.298Z,14.37
2023-02-02T14:42:03.859Z,12.20
2023-02-02T14:45:07.926Z,16.23
2023-02-02T14:48:09.507Z,13.10
2023-02-02T14:51:18.756Z,20.03
2023-02-02T14:54:25.824Z,13.30
2023-02-02T14:57:27.854Z,41.63
2023-02-02T15:00:32.226Z,20.20
2023-02-02T15:03:46.953Z,16.80
2023-02-02T15:06:49.280Z,22.13
2023-02-02T15:09:58.473Z,19.20
2023-02-02T15:13:06.329Z,19.23
2023-02-02T15:16:15.184Z,115.03
2023-02-02T15:19:27.391Z,22.30
2023-02-02T15:22:32.109Z,22.53
2023-02-02T15:25:52.171Z,23.73
2023-02-02T15:29:07.029Z,26.37
2023-02-02T15:32:15.042Z,39.20
2023-02-02T15:35:23.494Z,17.63
2023-02-02T15:38:30.574Z,34.83
2023-02-02T15:41:37.514Z,13.30
2023-02-02T15:44:39.117Z,20.73
2023-02-02T15:47:42.488Z,20.20
2023-02-02T15:50:46.535Z,20.77
2023-02-02T15:53:49.265Z,24.23
2023-02-02T15:56:51.547Z,28.47
2023-02-02T15:59:53.150Z,11.27
2023-02-02T16:03:15.056Z,12.97
2023-02-02T16:06:17.267Z,23.77
2023-02-02T16:09:27.265Z,9.53
2023-02-02T16:12:28.892Z,7.50
2023-02-02T16:15:31.998Z,8.87
2023-02-02T16:18:35.038Z,10.30
2023-02-02T16:21:38.689Z,9.37
2023-02-02T16:24:41.420Z,6.40
2023-02-02T16:27:46.221Z,6.27
2023-02-02T16:30:48.358Z,8.03
2023-02-02T16:33:51.356Z,7.03
2023-02-02T16:37:11.817Z,31.53
2023-02-02T16:40:16.319Z,5.97
2023-02-02T16:43:19.740Z,15.57
2023-02-02T16:46:53.758Z,12.80
2023-02-02T16:50:15.663Z,7.50
2023-02-02T16:53:24.428Z,3.97
2023-02-02T16:56:32.560Z,9.13
2023-02-02T16:59:35.620Z,11.27
2023-02-02T17:02:40.361Z,8.40
2023-02-02T17:05:50.339Z,7.43
2023-02-02T17:08:52.362Z,9.67
2023-02-02T17:12:31.963Z,8.67
2023-02-02T17:15:35.833Z,6.13
2023-02-02T17:18:40.122Z,6.33
2023-02-02T17:21:41.930Z,5.13
2023-02-02T17:24:45.341Z,7.33
2023-02-02T17:27:47.354Z,13.37
2023-02-02T17:30:53.033Z,13.13
2023-02-02T17:33:54.819Z,12.13
2023-02-02T17:36:56.602Z,10.90
2023-02-02T17:39:58.421Z,8.27
2023-02-02T17:43:00.299Z,10.73
2023-02-02T17:46:03.258Z,9.13
2023-02-02T17:49:05.115Z,22.07
2023-02-02T17:52:06.892Z,13.20
2023-02-02T17:55:14.413Z,20.90
2023-02-02T17:58:17.702Z,16.43
2023-02-02T18:01:19.477Z,11.00
2023-02-02T18:04:21.359Z,14.40
2023-02-02T18:07:23.014Z,11.67
2023-02-02T18:10:26.488Z,12.43
2023-02-02T18:13:28.721Z,15.63
2023-02-02T18:16:30.367Z,18.57
2023-02-02T18:19:32.027Z,20.30
2023-02-02T18:22:33.698Z,18.87
2023-02-02T18:25:35.521Z,11.53
2023-02-02T18:28:37.987Z,19.10
2023-02-02T18:31:42.481Z,16.60
2023-02-02T18:34:44.917Z,27.77
2023-02-02T18:37:46.679Z,33.63
2023-02-02T18:40:54.412Z,28.47
2023-02-02T18:43:56.129Z,30.07
2023-02-02T18:46:57.945Z,34.93
2023-02-02T18:49:59.623Z,40.30
2023-02-02T18:53:01.686Z,45.53
2023-02-02T18:56:10.558Z,48.80
2023-02-02T18:59:12.656Z,46.00
2023-02-02T19:02:15.231Z,54.10
2023-02-02T19:05:35.559Z,63.53
2023-02-02T19:08:37.475Z,72.90
2023-02-02T19:11:44.536Z,77.67
2023-02-02T19:14:46.472Z,65.97
2023-02-02T19:17:50.326Z,67.37
2023-02-02T19:20:52.632Z,55.37
2023-02-02T19:23:54.570Z,61.80
2023-02-02T19:26:56.872Z,71.03
2023-02-02T19:30:01.453Z,82.47
2023-02-02T19:33:09.039Z,89.33
2023-02-02T19:36:15.296Z,80.87
2023-02-02T19:39:22.091Z,83.07
2023-02-02T19:42:24.309Z,74.83
2023-02-02T19:45:28.200Z,77.63
2023-02-02T19:48:34.725Z,87.90
2023-02-02T19:51:39.496Z,98.13
2023-02-02T19:54:42.221Z,96.47
2023-02-02T19:57:44.851Z,103.53
2023-02-02T20:00:57.354Z,106.73
2023-02-02T20:03:59.320Z,104.27
2023-02-02T20:07:01.761Z,72.77
2023-02-02T20:10:12.498Z,109.07
2023-02-02T20:13:21.174Z,104.93
2023-02-02T20:16:24.022Z,80.50
2023-02-02T20:19:28.952Z,40.10
2023-02-02T20:22:33.515Z,23.97
2023-02-02T20:25:37.381Z,22.27
2023-02-02T20:28:42.812Z,28.33
2023-02-02T20:31:45.930Z,17.53
2023-02-02T20:34:48.151Z,79.63
2023-02-02T20:37:50.237Z,106.37
2023-02-02T20:40:52.396Z,91.20
2023-02-02T20:43:54.252Z,110.13
2023-02-02T20:46:57.015Z,87.57
2023-02-02T20:50:01.171Z,79.47
2023-02-02T20:53:02.769Z,82.80
2023-02-02T20:56:05.957Z,64.53
2023-02-02T20:59:07.854Z,92.03
2023-02-02T21:02:18.960Z,90.33
2023-02-02T21:05:21.494Z,79.97
2023-02-02T21:08:25.446Z,74.07
2023-02-02T21:11:27.311Z,71.23
2023-02-02T21:14:28.994Z,75.97
2023-02-02T21:17:31.129Z,58.13
2023-02-02T21:20:33.330Z,41.53
2023-02-02T21:23:35.140Z,20.83
2023-02-02T21:26:36.798Z,8.20
2023-02-02T21:29:38.600Z,9.73
2023-02-02T21:32:40.350Z,20.13
2023-02-02T21:35:42.146Z,15.27
2023-02-02T21:38:43.978Z,16.30
2023-02-02T21:41:45.781Z,13.03
2023-02-02T21:44:54.782Z,31.73
2023-02-02T21:47:58.163Z,30.63
2023-02-02T21:51:02.483Z,32.37
2023-02-02T21:54:33.875Z,29.40
2023-02-02T21:57:36.689Z,27.93
2023-02-02T22:00:38.860Z,30.10
2023-02-02T22:03:46.464Z,28.17
2023-02-02T22:06:49.431Z,29.40
2023-02-02T22:09:52.578Z,31.23
2023-02-02T22:12:54.325Z,27.67
2023-02-02T22:15:56.077Z,27.43
2023-02-02T22:18:58.352Z,20.13
2023-02-02T22:22:09.138Z,28.13
2023-02-02T22:25:16.627Z,33.67
2023-02-02T22:28:26.172Z,36.07
2023-02-02T22:31:27.836Z,42.53
2023-02-02T22:34:29.648Z,37.17
2023-02-02T22:37:31.203Z,32.67
2023-02-02T22:40:32.787Z,37.93
2023-02-02T22:43:34.437Z,41.07
2023-02-02T22:46:36.068Z,40.73
2023-02-02T22:49:37.647Z,44.63
2023-02-02T22:52:39.278Z,42.30
2023-02-02T22:55:41.139Z,54.13
2023-02-02T22:58:42.752Z,43.30
2023-02-02T23:01:44.352Z,44.87
2023-02-02T23:04:45.990Z,37.60
2023-02-02T23:07:47.727Z,39.37
2023-02-02T23:10:49.348Z,39.43
2023-02-02T23:13:51.021Z,30.37
2023-02-02T23:16:52.655Z,31.97
2023-02-02T23:19:54.237Z,29.57
2023-02-02T23:22:55.894Z,25.10
2023-02-02T23:25:57.537Z,26.33
2023-02-02T23:29:00.065Z,30.00
2023-02-02T23:32:02.566Z,25.77
2023-02-02T23:35:04.784Z,28.27
2023-02-02T23:38:06.392Z,34.60
2023-02-02T23:41:07.969Z,28.40
2023-02-02T23:44:09.557Z,26.97
2023-02-02T23:47:11.227Z,23.07
2023-02-02T23:50:13.242Z,28.37
2023-02-02T23:53:15.258Z,28.30
2023-02-02T23:56:17.111Z,27.00
2023-02-02T23:59:18.667Z,30.87
